Tiempo atmosférico en la estación meteorológica de Porreres, Illes Balears (120 m.)



Fecha
DESCASC
Temp. máxima en grados centígrados (hora)
DESCASC
Temp. mínima en grados centígrados (hora)
DESCASC
Temp. media en grados centígrados
DESCASC
Racha de viento máxima en m/sg (hora)
DESCASC
Velocidad máxima media en intervalos de 10 minutos(hora)
DESCASC
Precipitaciones diarias en mm
DESCASC
Precipitaciones de 00:00 a 06:00 en mm
DESCASC
Precipitaciones de 06:00 a 12:00 en mm
DESCASC
Precipitaciones de 12:00 a 18:00 en mm
DESCASC
Precipitaciones de 18:00 a 24:00 en mm
DESCASC
22-11-2020 -- (--) -- (--) -- 9.44 (12:20) 4.72 (12:10) 0 0 0 0 0
21-11-2020 -- (--) -- (--) -- 9.44 (12:50) 5.83 (06:10) 0 0 0 0 0
20-11-2020 -- (--) -- (--) -- 9.17 (13:10) 5.28 (13:10) 0 0 0 0 0
19-11-2020 -- (--) -- (--) -- 4.17 (11:50) 1.94 (22:20) 0 0 0 0 0
18-11-2020 -- (--) -- (--) -- 3.89 (12:40) 1.94 (15:10) 0 0 0 0 0
17-11-2020 -- (--) -- (--) -- 3.89 (14:20) 2.22 (14:20) 0 0 0 0 0
16-11-2020 -- (--) -- (--) -- 7.5 (03:40) 3.89 (01:30) 0.1 0 0.1 0 0
15-11-2020 -- (--) -- (--) -- 9.17 (14:10) 5.83 (20:10) 0 0 0 0 0
14-11-2020 -- (--) -- (--) -- 3.33 (16:10) 1.94 (03:10) 0 0 0 0 0
13-11-2020 -- (--) -- (--) -- 5.83 (13:10) 3.33 (12:30) 0 0 0 0 0
12-11-2020 -- (--) -- (--) -- 5.83 (14:30) 3.33 (14:40) 0 0 0 0 0
11-11-2020 -- (--) -- (--) -- 5 (11:20) 2.5 (16:30) 0 0 0 0 0
10-11-2020 -- (--) -- (--) -- 4.17 (14:00) 2.22 (10:50) 0 0 0 0 0
09-11-2020 -- (--) -- (--) -- 5 (14:30) 2.5 (14:00) 0 0 0 0 0
08-11-2020 23.7 (14:10) 11.2 (00:00) 17.5 4.72 (15:40) 2.22 (16:10) 0 0 0 0 0
07-11-2020 22.5 (14:40) 14.9 (00:00) 18.7 9.44 (09:20) 5 (12:10) 3.1 0 1.8 1.3 0
06-11-2020 22.6 (13:40) 18.5 (00:00) 20.6 8.33 (12:00) 4.72 (11:50) 0 0 0 0 0
05-11-2020 21.2 (10:50) 15.6 (00:00) 18.4 8.61 (10:00) 5 (11:30) 0 0 0 0 0
04-11-2020 19.3 (10:50) 14.1 (00:00) 16.7 8.61 (16:00) 4.44 (13:30) 0 0 0 0 0
03-11-2020 23.7 (13:40) 13.1 (00:00) 18.4 4.72 (14:00) 1.67 (13:10) 0 0 0 0 0
02-11-2020 23.2 (12:30) 10.2 (00:00) 16.7 5.28 (12:40) 2.5 (12:30) 0 0 0 0 0
01-11-2020 -- (--) -- (--) -- 6.67 (14:10) 3.33 (14:00) 0 0 0 0 0
31-10-2020 -- (--) -- (--) -- 5 (14:20) 2.78 (14:30) 0 0 0 0 0
30-10-2020 25.1 (14:10) 10.2 (00:00) 17.7 6.11 (13:50) 3.33 (14:30) 0 0 0 0 0
29-10-2020 23.4 (12:10) 10.4 (00:00) 16.9 4.72 (16:00) 2.5 (15:10) 0 0 0 0 0
28-10-2020 23.8 (14:10) 8.6 (00:00) 16.2 6.67 (15:10) 3.89 (14:30) 0 0 0 0 0
27-10-2020 21.2 (13:50) 9.7 (00:00) 15.5 7.22 (01:50) 3.89 (17:00) 0 0 0 0 0

Gráficas

Temp. máximas Temp. mínimas Temp. medias Precipitaciones Rachas de viento máximas Velocidades máximas media en intervalos de 10 minutos

Datos horarios

Fecha y hora oficial Temperatura (ºC) Velocidad del viento (km/h) Dirección del viento Racha (km/h) Dirección de racha Precipitación (mm) Presión (hPa) Tendencia (hPa) Humedad (%)
2020-11-25 23:00:00 -- 0 Calma 6 Noroeste 0 -- -- 90
2020-11-25 22:00:00 -- 0 Calma 6 Norte 0 -- -- 89
2020-11-25 21:00:00 -- 0 Calma 3 Noroeste 0 -- -- 84
2020-11-25 20:00:00 -- 0 Calma 4 Oeste 0 -- -- 82
2020-11-25 19:00:00 -- 0 Calma 4 Noroeste 0 -- -- 77
2020-11-25 18:00:00 -- 3 Sudeste 10 Sur 0 -- -- 73
2020-11-25 17:00:00 -- 5 Sudeste 16 Sudeste 0 -- -- 67
2020-11-25 16:00:00 -- 12 Sudeste 22 Sudeste 0 -- -- 60
2020-11-25 15:00:00 -- 11 Sur 26 Sudeste 0 -- -- 57
2020-11-25 14:00:00 -- 12 Sudeste 23 Sudeste 0 -- -- 55
2020-11-25 13:00:00 -- 12 Sur -- -- -- -- -- 62
2020-11-25 12:00:00 -- 8 Sur 19 Sur 0 -- -- 62
2020-11-25 11:00:00 -- 4 Sudeste 8 Sudeste 0 -- -- 65
2020-11-25 10:00:00 -- 0 Calma 2 Sur 0 -- -- 76
2020-11-25 09:00:00 -- 0 Calma 5 Este 0 -- -- 85
2020-11-25 08:00:00 -- 0 Calma 5 Noroeste 0 -- -- 87
2020-11-25 07:00:00 -- 0 Calma 5 Norte 0 -- -- 88
2020-11-25 06:00:00 -- 0 Calma 4 Oeste 0 -- -- 87
2020-11-25 05:00:00 -- 3 Norte 4 Norte 0 -- -- 86
2020-11-25 04:00:00 -- 0 Calma 3 Noroeste 0 -- -- 84
2020-11-25 03:00:00 -- 0 Calma 4 Norte 0 -- -- 82
2020-11-25 02:00:00 -- 2 Noroeste 5 Noroeste 0 -- -- 82
2020-11-25 01:00:00 -- 0 Calma 5 Noroeste 0 -- -- 83
2020-11-25 00:00:00 -- 0 Calma 3 Noroeste 0 -- -- 80
2020-11-24 23:00:00 -- 0 Calma 2 Norte 0 -- -- 76
2020-11-24 22:00:00 -- 0 Calma 3 Norte 0 -- -- 73
2020-11-24 21:00:00 -- 0 Calma 4 Oeste 0 -- -- 72
2020-11-24 20:00:00 -- 0 Calma 3 Oeste 0 -- -- 70
2020-11-24 19:00:00 -- 0 Calma 3 Noroeste 0 -- -- 69
2020-11-24 18:00:00 -- 0 Calma 6 Sudoeste 0 -- -- 65
2020-11-24 17:00:00 -- 5 Sudoeste 19 Sudoeste 0 -- -- 59
2020-11-24 16:00:00 -- 3 Sur 20 Sudoeste 0 -- -- 58
2020-11-24 15:00:00 -- 5 Sudoeste 15 Sudoeste 0 -- -- 60
2020-11-24 14:00:00 -- 7 Sudoeste 15 Sudoeste 0 -- -- 59
2020-11-24 13:00:00 -- 5 Sudoeste 17 Sur 0 -- -- 56
2020-11-24 12:00:00 -- 9 Sudeste 14 Sudeste 0 -- -- 54
2020-11-24 11:00:00 -- 5 Sudeste 9 Sudeste 0 -- -- 60
2020-11-24 10:00:00 -- 3 Sudeste 5 Este 0 -- -- 68
2020-11-24 09:00:00 -- 0 Calma 6 Noroeste 0 -- -- 83
2020-11-24 08:00:00 -- 4 Norte 10 Norte 0 -- -- 95
2020-11-24 07:00:00 -- 0 Calma 2 Noroeste 0 -- -- 94
2020-11-24 06:00:00 -- 0 Calma 2 Noroeste 0 -- -- 93
2020-11-24 05:00:00 -- 0 Calma 3 Noroeste 0 -- -- 91
2020-11-24 04:00:00 -- 0 Calma 5 Noroeste 0 -- -- 90
2020-11-24 03:00:00 -- 0 Calma 4 Noroeste 0 -- -- 88
2020-11-24 02:00:00 -- 0 Calma 4 Noroeste 0 -- -- 86
2020-11-24 01:00:00 -- 0 Calma 7 Noroeste 0 -- -- 85
2020-11-24 00:00:00 -- 0 Calma 5 Noroeste 0 -- -- 84
2020-11-23 23:00:00 -- 0 Calma 0 Calma 0 -- -- 83
2020-11-23 22:00:00 -- 0 Calma 3 Oeste 0 -- -- 80
2020-11-23 21:00:00 -- 0 Calma 0 Calma 0 -- -- 74
2020-11-23 20:00:00 -- 0 Calma 3 Norte 0 -- -- 68
2020-11-23 19:00:00 -- 0 Calma 6 Este 0 -- -- 68
2020-11-23 18:00:00 -- 5 Sudeste 10 Sudeste 0 -- -- 60
2020-11-23 17:00:00 -- 3 Sudeste 9 Nordeste 0 -- -- 53
2020-11-23 16:00:00 -- 3 Nordeste 11 Sudeste 0 -- -- 47
2020-11-23 15:00:00 -- 3 Nordeste 14 Norte 0 -- -- 45
2020-11-23 14:00:00 -- 0 Calma 13 Norte 0 -- -- 40
2020-11-23 13:00:00 -- 3 Este 14 Sudeste 0 -- -- 43
2020-11-23 12:00:00 -- 8 Sudeste 21 Este 0 -- -- 49
2020-11-23 11:00:00 -- 4 Este 11 Nordeste 0 -- -- 52
2020-11-23 10:00:00 -- 0 Calma 10 Noroeste 0 -- -- 63
2020-11-23 09:00:00 -- 4 Norte 9 Noroeste 0 -- -- 78
2020-11-23 08:00:00 -- 5 Norte 9 Norte 0 -- -- 86
2020-11-23 07:00:00 -- 6 Norte 11 Noroeste 0 -- -- 88
2020-11-23 06:00:00 -- 6 Norte 10 Norte 0 -- -- 88
2020-11-23 05:00:00 -- 6 Norte 10 Noroeste 0 -- -- 87
2020-11-23 04:00:00 -- 5 Norte 11 Norte 0 -- -- 86
2020-11-23 03:00:00 -- 6 Norte 11 Noroeste 0 -- -- 86
2020-11-23 02:00:00 -- 8 Norte 15 Noroeste 0 -- -- 85
2020-11-23 01:00:00 -- 6 Norte 11 Noroeste 0 -- -- 84
2020-11-23 00:00:00 -- 4 Norte 11 Noroeste 0 -- -- 83
2020-11-22 23:00:00 -- 6 Noroeste 12 Norte 0 -- -- 81
2020-11-22 22:00:00 -- 6 Norte 12 Norte 0 -- -- 79
2020-11-22 21:00:00 -- 6 Noroeste 11 Noroeste 0 -- -- 78
2020-11-22 20:00:00 -- 3 Noroeste 9 Norte 0 -- -- 75
2020-11-22 19:00:00 -- 4 Norte 10 Norte 0 -- -- 69
2020-11-22 18:00:00 -- 4 Nordeste 17 Norte 0 -- -- 66
2020-11-22 17:00:00 -- 10 Nordeste 22 Norte 0 -- -- 58
2020-11-22 16:00:00 -- 11 Norte 29 Norte 0 -- -- 53
2020-11-22 15:00:00 -- 10 Norte 30 Norte 0 -- -- 42
2020-11-22 14:00:00 -- 5 Nordeste 25 Norte 0 -- -- 43
2020-11-22 13:00:00 -- 10 Nordeste 34 Norte 0 -- -- 50
2020-11-22 12:00:00 -- 15 Norte 32 Norte 0 -- -- 50
2020-11-22 11:00:00 -- 14 Norte 28 Nordeste 0 -- -- 51
2020-11-22 10:00:00 -- 9 Norte 23 Norte 0 -- -- 59
2020-11-22 09:00:00 -- 8 Norte 16 Norte 0 -- -- 71
2020-11-22 08:00:00 -- 6 Noroeste 15 Norte 0 -- -- 82
2020-11-22 07:00:00 -- 7 Norte 13 Norte 0 -- -- 82
2020-11-22 06:00:00 -- 4 Noroeste 13 Noroeste 0 -- -- 78
2020-11-22 05:00:00 -- 6 Noroeste 17 Noroeste 0 -- -- 77
2020-11-22 04:00:00 -- 9 Noroeste 15 Noroeste 0 -- -- 78
2020-11-22 03:00:00 -- 8 Norte 15 Norte 0 -- -- 76
2020-11-22 02:00:00 -- 7 Norte 13 Norte 0 -- -- 78
2020-11-22 01:00:00 -- 6 Noroeste 13 Noroeste 0 -- -- 78
2020-11-22 00:00:00 -- 6 Norte 12 Noroeste 0 -- -- 80
2020-11-21 23:00:00 -- 7 Norte 13 Norte 0 -- -- 79
2020-11-21 22:00:00 -- 3 Norte 14 Noroeste 0 -- -- 79
2020-11-21 21:00:00 -- 3 Norte 14 Norte 0 -- -- 77
2020-11-21 20:00:00 -- 9 Norte 15 Norte 0 -- -- 76
2020-11-21 19:00:00 -- 9 Norte 18 Norte 0 -- -- 75
2020-11-21 18:00:00 -- 11 Norte 20 Norte 0 -- -- 70
2020-11-21 17:00:00 -- 10 Norte 25 Norte 0 -- -- 66
2020-11-21 16:00:00 -- 7 Nordeste 32 Norte 0 -- -- 57
2020-11-21 15:00:00 -- 17 Norte 31 Norte 0 -- -- 54
2020-11-21 14:00:00 -- 10 Nordeste 34 Norte 0 -- -- 47
2020-11-21 13:00:00 -- 13 Nordeste 34 Nordeste 0 -- -- 38
2020-11-21 12:00:00 -- 14 Nordeste 32 Norte 0 -- -- 42
2020-11-21 11:00:00 -- 11 Nordeste 31 Norte 0 -- -- 50
2020-11-21 10:00:00 -- 8 Nordeste 26 Norte 0 -- -- 56
2020-11-21 09:00:00 -- 9 Norte 18 Norte 0 -- -- 63
2020-11-21 08:00:00 -- 10 Norte 18 Norte 0 -- -- 71
2020-11-21 07:00:00 -- 10 Norte 33 Norte 0 -- -- 69
2020-11-21 06:00:00 -- 18 Norte 26 Norte 0 -- -- 69
2020-11-21 05:00:00 -- 12 Norte 24 Norte 0 -- -- 64
2020-11-21 04:00:00 -- 11 Norte 26 Norte 0 -- -- 69
2020-11-21 03:00:00 -- 10 Norte 24 Norte 0 -- -- 67
2020-11-21 02:00:00 -- 11 Nordeste 26 Nordeste 0 -- -- 66
2020-11-21 01:00:00 -- 10 Nordeste 24 Norte 0 -- -- 66
2020-11-21 00:00:00 -- 10 Nordeste 24 Nordeste 0 -- -- 62
2020-11-20 23:00:00 -- 8 Nordeste 26 Nordeste 0 -- -- 55
2020-11-20 22:00:00 -- 10 Nordeste 25 Norte 0 -- -- 50
2020-11-20 21:00:00 -- 5 Nordeste 18 Norte 0 -- -- 57
2020-11-20 20:00:00 -- 3 Nordeste 15 Este 0 -- -- 53
2020-11-20 19:00:00 -- 2 Nordeste 11 Nordeste 0 -- -- 47
2020-11-20 18:00:00 -- 4 Nordeste 17 Nordeste 0 -- -- 44
2020-11-20 17:00:00 -- 5 Nordeste 22 Nordeste 0 -- -- 36
2020-11-20 16:00:00 -- 14 Norte 32 Norte 0 -- -- 52
2020-11-20 15:00:00 -- 16 Norte 30 Norte 0 -- -- 49
2020-11-20 14:00:00 -- 15 Norte 33 Norte 0 -- -- 45
2020-11-20 13:00:00 -- 10 Nordeste 33 Norte 0 -- -- 44
2020-11-20 12:00:00 -- 9 Nordeste 26 Norte 0 -- -- 53
2020-11-20 11:00:00 -- 10 Norte 21 Norte 0 -- -- 71
2020-11-20 10:00:00 -- 6 Nordeste 18 Norte 0 -- -- 72
2020-11-20 09:00:00 -- 5 Nordeste 18 Nordeste 0 -- -- 72
2020-11-20 08:00:00 -- 6 Nordeste 17 Norte 0 -- -- 74
2020-11-20 07:00:00 -- 2 Nordeste 9 Norte 0 -- -- 76
2020-11-20 06:00:00 -- 2 Nordeste 13 Este 0 -- -- 72
2020-11-20 05:00:00 -- 2 Nordeste 12 Nordeste 0 -- -- 70
2020-11-20 04:00:00 -- 0 Calma 4 Norte 0 -- -- 77
2020-11-20 03:00:00 -- 0 Calma 10 Norte 0 -- -- 79
2020-11-20 02:00:00 -- 2 Nordeste 15 Norte 0 -- -- 83
2020-11-20 01:00:00 -- 2 Noroeste 8 Norte 0 -- -- 88
2020-11-20 00:00:00 -- 0 Calma 6 Norte 0 -- -- 85
2020-11-19 23:00:00 -- 0 Calma 12 Noroeste 0 -- -- 81
2020-11-19 22:00:00 -- 2 Norte 6 Noroeste 0 -- -- 82
2020-11-19 21:00:00 -- 0 Calma 7 Noroeste 0 -- -- 83
2020-11-19 20:00:00 -- 4 Noroeste 9 Noroeste 0 -- -- 84
2020-11-19 19:00:00 -- 0 Calma 4 Noroeste 0 -- -- 79
2020-11-19 18:00:00 -- 3 Sudeste 12 Sudeste 0 -- -- 78
2020-11-19 17:00:00 -- 3 Este 12 Nordeste 0 -- -- 60
2020-11-19 16:00:00 -- 2 Este 15 Norte 0 -- -- 52
2020-11-19 15:00:00 -- 5 Norte 13 Norte 0 -- -- 50
2020-11-19 14:00:00 -- 5 Norte 14 Norte 0 -- -- 53
2020-11-19 13:00:00 -- 5 Norte 15 Norte 0 -- -- 59
2020-11-19 12:00:00 -- 4 Norte 15 Norte 0 -- -- 60
2020-11-19 11:00:00 -- 6 Norte 13 Norte 0 -- -- 69
2020-11-19 10:00:00 -- 2 Norte 5 Noroeste 0 -- -- 71
2020-11-19 09:00:00 -- 0 Calma 5 Noroeste 0 -- -- 91
2020-11-19 08:00:00 -- 0 Calma 8 Noroeste 0 -- -- 94
2020-11-19 07:00:00 -- 0 Calma 8 Noroeste 0 -- -- 95
2020-11-19 06:00:00 -- 5 Noroeste 9 Norte 0 -- -- 97
2020-11-19 05:00:00 -- 0 Calma 7 Noroeste 0 -- -- 97
2020-11-19 04:00:00 -- 5 Norte 7 Noroeste 0 -- -- 97
2020-11-19 03:00:00 -- 5 Norte 8 Norte 0 -- -- 97
2020-11-19 02:00:00 -- 0 Calma 9 Norte 0 -- -- 94
2020-11-19 01:00:00 -- 5 Noroeste 8 Noroeste 0 -- -- 96
2020-11-19 00:00:00 -- 0 Calma 0 Calma 0 -- -- 94
2020-11-18 23:00:00 -- 0 Calma 3 Oeste 0 -- -- 89
2020-11-18 22:00:00 -- 0 Calma 3 Noroeste 0 -- -- 88
2020-11-18 21:00:00 -- 0 Calma 5 Noroeste 0 -- -- 85
2020-11-18 20:00:00 -- 0 Calma 3 Norte 0 -- -- 78
2020-11-18 19:00:00 -- 0 Calma 7 Norte 0 -- -- 74
2020-11-18 18:00:00 -- 2 Norte 8 Noroeste 0 -- -- 70
2020-11-18 17:00:00 -- 5 Oeste 11 Oeste 0 -- -- 61
2020-11-18 16:00:00 -- 2 Sudeste 13 Sudeste 0 -- -- 43
2020-11-18 15:00:00 -- 6 Sudeste 13 Sudeste 0 -- -- 43
2020-11-18 14:00:00 -- 0 Calma 12 Sudeste 0 -- -- 41
2020-11-18 13:00:00 -- 3 Este 14 Sudeste 0 -- -- 50
2020-11-18 12:00:00 -- 0 Calma 13 Este 0 -- -- 57
2020-11-18 11:00:00 -- 2 Este 11 Norte 0 -- -- 61
2020-11-18 10:00:00 -- 3 Noroeste 8 Norte 0 -- -- 78
2020-11-18 09:00:00 -- 4 Norte 7 Norte 0 -- -- 90
2020-11-18 08:00:00 -- 2 Norte 8 Norte 0 -- -- 98
2020-11-18 07:00:00 -- 0 Calma 8 Noroeste 0 -- -- 96
2020-11-18 06:00:00 -- 2 Noroeste 7 Noroeste 0 -- -- 95
2020-11-18 05:00:00 -- 0 Calma 5 Noroeste 0 -- -- 95
2020-11-18 04:00:00 -- 0 Calma 8 Norte 0 -- -- 95
2020-11-18 03:00:00 -- 0 Calma 9 Noroeste 0 -- -- 95
2020-11-18 02:00:00 -- 0 Calma 6 Noroeste 0 -- -- 93
2020-11-18 01:00:00 -- 0 Calma 4 Noroeste 0 -- -- 92
2020-11-18 00:00:00 -- 0 Calma 5 Oeste 0 -- -- 94
2020-11-17 23:00:00 -- 0 Calma 5 Oeste 0 -- -- 90
2020-11-17 22:00:00 -- 2 Noroeste 8 Noroeste 0 -- -- 90
2020-11-17 21:00:00 -- 0 Calma 5 Nordeste 0 -- -- 85
2020-11-17 20:00:00 -- 0 Calma 5 Nordeste 0 -- -- 83
2020-11-17 19:00:00 -- 0 Calma 5 Nordeste 0 -- -- 79
2020-11-17 18:00:00 -- 0 Calma 10 Nordeste 0 -- -- 77
2020-11-17 17:00:00 -- 3 Este 13 Sudeste 0 -- -- 70
2020-11-17 16:00:00 -- 6 Este 13 Nordeste 0 -- -- 62
2020-11-17 15:00:00 -- 4 Noroeste 14 Norte 0 -- -- 49
2020-11-17 14:00:00 -- 5 Noroeste 12 Norte 0 -- -- 50
2020-11-17 13:00:00 -- 0 Calma 12 Norte 0 -- -- 49
2020-11-17 12:00:00 -- 3 Noroeste 12 Norte 0 -- -- 55
2020-11-17 11:00:00 -- 5 Sudeste 10 Sudeste 0 -- -- 63
2020-11-17 10:00:00 -- 3 Sudeste 5 Sudeste 0 -- -- 67
2020-11-17 09:00:00 -- 0 Calma 4 Oeste 0 -- -- 85
2020-11-17 08:00:00 -- 0 Calma 6 Noroeste 0 -- -- 92
2020-11-17 07:00:00 -- 0 Calma 6 Noroeste 0 -- -- 91
2020-11-17 06:00:00 -- 0 Calma 4 Norte 0 -- -- 92
2020-11-17 05:00:00 -- 0 Calma 6 Norte 0 -- -- 92
2020-11-17 04:00:00 -- 0 Calma 6 Noroeste 0 -- -- 90
2020-11-17 03:00:00 -- 4 Norte 6 Noroeste 0 -- -- 89
2020-11-17 02:00:00 -- 4 Norte 10 Noroeste 0 -- -- 87
2020-11-17 01:00:00 -- 4 Noroeste 8 Noroeste 0 -- -- 89
2020-11-17 00:00:00 -- 0 Calma 4 Norte 0 -- -- 88
2020-11-16 23:00:00 -- 3 Norte 6 Norte 0 -- -- 86
2020-11-16 22:00:00 -- 0 Calma 6 Noroeste 0 -- -- 82
2020-11-16 21:00:00 -- 5 Noroeste 9 Norte 0 -- -- 80
2020-11-16 20:00:00 -- 3 Noroeste 9 Norte 0 -- -- 78
2020-11-16 19:00:00 -- 4 Norte 9 Norte 0 -- -- 76
2020-11-16 18:00:00 -- 3 Nordeste 21 Nordeste 0 -- -- 74
2020-11-16 17:00:00 -- 6 Nordeste 19 Norte 0 -- -- 71
2020-11-16 16:00:00 -- 6 Nordeste 19 Norte 0 -- -- 66
2020-11-16 15:00:00 -- 5 Nordeste 26 Norte 0 -- -- 62
2020-11-16 14:00:00 -- 5 Nordeste 20 Nordeste 0 -- -- 56
2020-11-16 13:00:00 -- 4 Nordeste 19 Este 0 -- -- 63
2020-11-16 12:00:00 -- 5 Nordeste 24 Norte 0 -- -- 72
2020-11-16 11:00:00 -- 10 Nordeste 26 Nordeste 0 -- -- 77
2020-11-16 10:00:00 -- 4 Nordeste 18 Nordeste 0 -- -- 86
2020-11-16 09:00:00 -- 0 Calma 15 Norte 0 -- -- 89
2020-11-16 08:00:00 -- 0 Calma 5 Este 0 -- -- 91
2020-11-16 07:00:00 -- 2 Este 7 Noroeste 0.1 -- -- 85
2020-11-16 06:00:00 -- 5 Oeste 10 Oeste 0 -- -- 77
2020-11-16 05:00:00 -- 4 Oeste 15 Oeste 0 -- -- 74
2020-11-16 04:00:00 -- 8 Oeste 27 Oeste 0 -- -- 72
2020-11-16 03:00:00 -- 4 Sudoeste 19 Oeste 0 -- -- 93
2020-11-16 02:00:00 -- 6 Oeste 24 Oeste 0 -- -- 94
2020-11-16 01:00:00 -- 13 Oeste 23 Oeste 0 -- -- 94
2020-11-16 00:00:00 -- 0 Calma 15 Sudoeste 0 -- -- 93
2020-11-15 23:00:00 -- 6 Oeste 24 Sudoeste 0 -- -- 89
2020-11-15 22:00:00 -- 14 Oeste 27 Sudoeste 0 -- -- 86
2020-11-15 21:00:00 -- 12 Oeste 32 Oeste 0 -- -- 88
2020-11-15 20:00:00 -- 20 Oeste 31 Oeste 0 -- -- 83
2020-11-15 19:00:00 -- 16 Oeste 26 Oeste 0 -- -- 82
2020-11-15 18:00:00 -- 5 Noroeste 19 Noroeste 0 -- -- 79
2020-11-15 17:00:00 -- 9 Sudoeste 32 Oeste 0 -- -- 74
2020-11-15 16:00:00 -- 15 Oeste 32 Oeste 0 -- -- 72
2020-11-15 15:00:00 -- 17 Oeste 33 Oeste 0 -- -- 67
2020-11-15 14:00:00 -- 19 Oeste 32 Oeste 0 -- -- 69
2020-11-15 13:00:00 -- 16 Oeste 28 Sur 0 -- -- 73
2020-11-15 12:00:00 -- 12 Oeste 27 Oeste 0 -- -- 72
2020-11-15 11:00:00 -- 13 Oeste 22 Oeste 0 -- -- 77
2020-11-15 10:00:00 -- 13 Oeste 19 Oeste 0 -- -- 84
2020-11-15 09:00:00 -- 0 Calma 0 Calma 0 -- -- 96
2020-11-15 08:00:00 -- 0 Calma 6 Oeste 0 -- -- 98
2020-11-15 07:00:00 -- 0 Calma 4 Nordeste 0 -- -- 96
2020-11-15 06:00:00 -- 0 Calma 4 Norte 0 -- -- 95
2020-11-15 05:00:00 -- 0 Calma 12 Sudoeste 0 -- -- 93
2020-11-15 04:00:00 -- 2 Oeste 8 Oeste 0 -- -- 94
2020-11-15 03:00:00 -- 0 Calma 4 Sudoeste 0 -- -- 93
2020-11-15 02:00:00 -- 0 Calma 0 Calma 0 -- -- 93
2020-11-15 01:00:00 -- 2 Noroeste 5 Noroeste 0 -- -- 92
2020-11-15 00:00:00 -- 0 Calma 4 Norte 0 -- -- 91
2020-11-14 23:00:00 -- 0 Calma 6 Noroeste 0 -- -- 89
2020-11-14 22:00:00 -- 0 Calma 5 Noroeste 0 -- -- 90
2020-11-14 21:00:00 -- 0 Calma 4 Noroeste 0 -- -- 89
2020-11-14 20:00:00 -- 0 Calma 4 Noroeste 0 -- -- 86
2020-11-14 19:00:00 -- 0 Calma 6 Norte 0 -- -- 86
2020-11-14 18:00:00 -- 0 Calma 10 Norte 0 -- -- 83
2020-11-14 17:00:00 -- 4 Nordeste 12 Norte 0 -- -- 80
2020-11-14 16:00:00 -- 4 Norte 9 Noroeste 0 -- -- 65
2020-11-14 15:00:00 -- 5 Noroeste 11 Noroeste 0 -- -- 65
2020-11-14 14:00:00 -- 0 Calma 6 Nordeste 0 -- -- 62
2020-11-14 13:00:00 -- 0 Calma 9 Sudeste 0 -- -- 60
2020-11-14 12:00:00 -- 2 Nordeste 7 Este 0 -- -- 69
2020-11-14 11:00:00 -- 2 Nordeste 9 Norte 0 -- -- 79
2020-11-14 10:00:00 -- 5 Norte 11 Norte 0 -- -- 89
2020-11-14 09:00:00 -- 5 Noroeste 10 Noroeste 0 -- -- 95
2020-11-14 08:00:00 -- 6 Noroeste 10 Noroeste 0 -- -- 97
2020-11-14 07:00:00 -- 5 Norte 8 Norte 0 -- -- 98
2020-11-14 06:00:00 -- 5 Norte 8 Noroeste 0 -- -- 98
2020-11-14 05:00:00 -- 5 Norte 11 Noroeste 0 -- -- 99
2020-11-14 04:00:00 -- 6 Norte 10 Noroeste 0 -- -- 98
2020-11-14 03:00:00 -- 6 Noroeste 10 Noroeste 0 -- -- 97
2020-11-14 02:00:00 -- 6 Norte 9 Norte 0 -- -- 97
2020-11-14 01:00:00 -- 2 Norte 6 Noroeste 0 -- -- 96
2020-11-14 00:00:00 -- 3 Norte 7 Norte 0 -- -- 95
2020-11-13 23:00:00 -- 4 Norte 9 Norte 0 -- -- 95
2020-11-13 22:00:00 -- 5 Norte 8 Norte 0 -- -- 94
2020-11-13 21:00:00 -- 2 Norte 8 Norte 0 -- -- 93
2020-11-13 20:00:00 -- 4 Norte 7 Norte 0 -- -- 92
2020-11-13 19:00:00 -- 2 Nordeste 9 Nordeste 0 -- -- 89
2020-11-13 18:00:00 -- 0 Calma 13 Este 0 -- -- 85
2020-11-13 17:00:00 -- 6 Este 18 Este 0 -- -- 76
2020-11-13 16:00:00 -- 8 Este 20 Este 0 -- -- 67
2020-11-13 15:00:00 -- 10 Este 21 Este 0 -- -- 61
2020-11-13 14:00:00 -- 10 Este 21 Este 0 -- -- 61
2020-11-13 13:00:00 -- 9 Este 19 Este 0 -- -- 62
2020-11-13 12:00:00 -- 11 Sudeste 19 Este 0 -- -- 64
2020-11-13 11:00:00 -- 5 Este 18 Este 0 -- -- 74
2020-11-13 10:00:00 -- 0 Calma 8 Norte 0 -- -- 86
2020-11-13 09:00:00 -- 3 Norte 5 Norte 0 -- -- 98
2020-11-13 08:00:00 -- 0 Calma 5 Noroeste 0 -- -- 98
2020-11-13 07:00:00 -- 0 Calma 11 Norte 0 -- -- 98
2020-11-13 06:00:00 -- 6 Norte 9 Noroeste 0 -- -- 98
2020-11-13 05:00:00 -- 5 Norte 11 Noroeste 0 -- -- 98
2020-11-13 04:00:00 -- 3 Noroeste 9 Noroeste 0 -- -- 98
2020-11-13 03:00:00 -- 4 Norte 9 Noroeste 0 -- -- 97
2020-11-13 02:00:00 -- 3 Norte 10 Norte 0 -- -- 96
2020-11-13 01:00:00 -- 6 Norte 9 Noroeste 0 -- -- 97
2020-11-13 00:00:00 -- 3 Norte 9 Noroeste 0 -- -- 96
2020-11-12 23:00:00 -- 0 Calma 8 Noroeste 0 -- -- 95
2020-11-12 22:00:00 -- 0 Calma 4 Noroeste 0 -- -- 93
2020-11-12 21:00:00 -- 0 Calma 0 Calma 0 -- -- 90
2020-11-12 20:00:00 -- 0 Calma 3 Sudoeste 0 -- -- 87
2020-11-12 19:00:00 -- 0 Calma 5 Sudeste 0 -- -- 82
2020-11-12 18:00:00 -- 2 Sudeste 12 Este 0 -- -- 81
2020-11-12 17:00:00 -- 6 Este 15 Sudeste 0 -- -- 74
2020-11-12 16:00:00 -- 8 Sudeste 16 Sudeste 0 -- -- 65
2020-11-12 15:00:00 -- 9 Sudeste 21 Sudeste 0 -- -- 63
2020-11-12 14:00:00 -- 5 Sudeste 12 Sudeste 0 -- -- 45
2020-11-12 13:00:00 -- 4 Sudeste 10 Sudeste 0 -- -- 46
2020-11-12 12:00:00 -- 3 Sudeste 10 Este 0 -- -- 58
2020-11-12 11:00:00 -- 0 Calma 5 Norte 0 -- -- 66
2020-11-12 10:00:00 -- 0 Calma 6 Noroeste 0 -- -- 81
2020-11-12 09:00:00 -- 2 Noroeste 12 Noroeste 0 -- -- 95
2020-11-12 08:00:00 -- 0 Calma 6 Norte 0 -- -- 98
2020-11-12 07:00:00 -- 6 Norte 9 Norte 0 -- -- 99
2020-11-12 06:00:00 -- 2 Noroeste 6 Noroeste 0 -- -- 98
2020-11-12 05:00:00 -- 3 Norte 10 Noroeste 0 -- -- 97
2020-11-12 04:00:00 -- 6 Norte 12 Norte 0 -- -- 98
2020-11-12 03:00:00 -- 6 Noroeste 13 Noroeste 0 -- -- 99
2020-11-12 02:00:00 -- 0 Calma 3 Noroeste 0 -- -- 96
2020-11-12 01:00:00 -- 0 Calma 6 Norte 0 -- -- 95
2020-11-12 00:00:00 -- 0 Calma 8 Noroeste 0 -- -- 95
2020-11-11 23:00:00 -- 0 Calma 0 Calma 0 -- -- 92
2020-11-11 22:00:00 -- 0 Calma 0 Calma 0 -- -- 91
2020-11-11 21:00:00 -- 0 Calma 2 Noroeste 0 -- -- 89
2020-11-11 20:00:00 -- 0 Calma 3 Norte 0 -- -- 84
2020-11-11 19:00:00 -- 0 Calma 8 Sudeste 0 -- -- 79
2020-11-11 18:00:00 -- 4 Sudeste 7 Sudeste 0 -- -- 75
2020-11-11 17:00:00 -- 3 Sudeste 13 Sudeste 0 -- -- 73
2020-11-11 16:00:00 -- 5 Sudeste 12 Sudeste 0 -- -- 67
2020-11-11 15:00:00 -- 6 Sudeste 10 Sudeste 0 -- -- 59
2020-11-11 14:00:00 -- 0 Calma 15 Este 0 -- -- 65
2020-11-11 13:00:00 -- 2 Sudeste 13 Sudeste 0 -- -- 65
2020-11-11 12:00:00 -- 2 Nordeste 18 Este 0 -- -- 63
2020-11-11 11:00:00 -- 6 Este 15 Este 0 -- -- 69
2020-11-11 10:00:00 18.6 4 Este 10 Este 0 -- -- 76
2020-11-11 09:00:00 -- 4 Norte 11 Noroeste 0 -- -- 91
2020-11-11 08:00:00 -- 7 Norte 10 Noroeste 0 -- -- 98
2020-11-11 07:00:00 -- 5 Norte 10 Noroeste 0 -- -- 98
2020-11-11 06:00:00 -- 6 Norte 9 Norte 0 -- -- 99
2020-11-11 05:00:00 -- 6 Norte 8 Norte 0 -- -- 98
2020-11-11 04:00:00 -- 3 Norte 7 Norte 0 -- -- 97
2020-11-11 03:00:00 -- 0 Calma 6 Noroeste 0 -- -- 96
2020-11-11 02:00:00 -- 6 Norte 8 Norte 0 -- -- 97
2020-11-11 01:00:00 -- 4 Norte 8 Noroeste 0 -- -- 95
2020-11-11 00:00:00 -- 2 Noroeste 11 Norte 0 -- -- 94
2020-11-10 23:00:00 -- 4 Noroeste 7 Norte 0 -- -- 93
2020-11-10 22:00:00 -- 0 Calma 3 Sudoeste 0 -- -- 94
2020-11-10 21:00:00 -- 0 Calma 4 Noroeste 0 -- -- 87
2020-11-10 20:00:00 -- 0 Calma 6 Noroeste 0 -- -- 90
2020-11-10 19:00:00 -- 0 Calma 5 Oeste 0 -- -- 85
2020-11-10 18:00:00 -- 0 Calma 10 Este 0 -- -- 82
2020-11-10 17:00:00 -- 2 Nordeste 13 Este 0 -- -- 78
2020-11-10 16:00:00 -- 3 Nordeste 15 Sudeste 0 -- -- 68
2020-11-10 15:00:00 -- 3 Nordeste 14 Este 0 -- -- 66
2020-11-10 14:00:00 22.5 6 Norte 15 Norte 0 -- -- 51
2020-11-10 13:00:00 13.6 3 Este 9 Sudeste 0 -- -- 47
2020-11-10 12:00:00 22.2 0 Calma 11 Norte 0 -- -- 61
2020-11-10 11:00:00 19.6 6 Norte 12 Norte 0 -- -- 69
2020-11-10 10:00:00 18.1 4 Noroeste 8 Noroeste 0 -- -- 82
2020-11-10 09:00:00 15.5 0 Calma 4 Norte 0 -- -- 92
2020-11-10 08:00:00 11 0 Calma 0 Calma 0 -- -- 98
2020-11-10 07:00:00 10.6 0 Calma 0 Calma 0 -- -- 98
2020-11-10 06:00:00 10.2 0 Calma 3 Oeste 0 -- -- 97
2020-11-10 05:00:00 10.9 0 Calma 6 Noroeste 0 -- -- 97
2020-11-10 04:00:00 11.1 0 Calma 4 Oeste 0 -- -- 97
2020-11-10 03:00:00 11.5 0 Calma 0 Calma 0 -- -- 96
2020-11-10 02:00:00 12.9 2 Norte 6 Noroeste 0 -- -- 98
2020-11-10 01:00:00 13.1 4 Norte 8 Norte 0 -- -- 99
2020-11-10 00:00:00 12.9 0 Calma 5 Noroeste 0 -- -- 94
2020-11-09 23:00:00 14.2 2 Norte 8 Norte 0 -- -- 96
2020-11-09 22:00:00 14.3 3 Noroeste 6 Noroeste 0 -- -- 95
2020-11-09 21:00:00 14.7 0 Calma 6 Noroeste 0 -- -- 89
2020-11-09 20:00:00 16 3 Noroeste 7 Noroeste 0 -- -- 90
2020-11-09 19:00:00 16.8 0 Calma 2 Oeste 0 -- -- 83
2020-11-09 18:00:00 19.3 0 Calma 9 Sudoeste 0 -- -- 75
2020-11-09 17:00:00 20.7 6 Sudoeste 15 Sur 0 -- -- 67
2020-11-09 16:00:00 21.9 5 Sur 16 Sudeste 0 -- -- 56
2020-11-09 15:00:00 22.8 7 Sur 18 Este 0 -- -- 65
2020-11-09 14:00:00 23.7 9 Sudeste 15 Sur 0 -- -- 54
2020-11-09 13:00:00 23.3 0 Calma 10 Este 0 -- -- 58
2020-11-09 12:00:00 22.7 0 Calma 6 Nordeste 0 -- -- 62
2020-11-09 11:00:00 20.1 2 Norte 6 Noroeste 0 -- -- 80
2020-11-09 10:00:00 18.2 2 Norte 7 Noroeste 0 -- -- 91
2020-11-09 09:00:00 15.4 4 Norte 7 Norte 0 -- -- 98
2020-11-09 08:00:00 13.6 0 Calma 10 Noroeste 0 -- -- 99
2020-11-09 07:00:00 13.6 4 Noroeste 10 Noroeste 0 -- -- 99
2020-11-09 06:00:00 14.3 4 Norte 7 Noroeste 0 -- -- 99
2020-11-09 05:00:00 14.4 0 Calma 5 Norte 0 -- -- 99
2020-11-09 04:00:00 15.2 3 Norte 6 Norte 0 -- -- 98
2020-11-09 03:00:00 15 0 Calma 7 Noroeste 0 -- -- 99
2020-11-09 02:00:00 14.2 0 Calma 6 Noroeste 0 -- -- 99
2020-11-09 01:00:00 14.3 0 Calma 7 Noroeste 0 -- -- 96
2020-11-09 00:00:00 14.8 5 Norte 8 Norte 0 -- -- 97
2020-11-08 23:00:00 15.8 4 Noroeste 8 Noroeste 0 -- -- 97
2020-11-08 22:00:00 15.7 5 Norte 8 Noroeste 0 -- -- 96
2020-11-08 21:00:00 16.2 4 Noroeste 8 Noroeste 0 -- -- 94
2020-11-08 20:00:00 16.8 5 Noroeste 8 Norte 0 -- -- 92
2020-11-08 19:00:00 17.5 0 Calma 5 Norte 0 -- -- 86
2020-11-08 18:00:00 18.7 3 Norte 6 Norte 0 -- -- 83
2020-11-08 17:00:00 20.6 4 Sudoeste 14 Sur 0 -- -- 74
2020-11-08 16:00:00 22.3 7 Sudoeste 17 Sudoeste 0 -- -- 70
2020-11-08 15:00:00 22 7 Sur 13 Sur 0 -- -- 68
2020-11-08 14:00:00 23.3 8 Sudoeste 15 Sur 0 -- -- 62
2020-11-08 13:00:00 22.8 6 Sur 14 Sudeste 0 -- -- 62
2020-11-08 12:00:00 22.7 6 Sur 11 Sudeste 0 -- -- 66
2020-11-08 11:00:00 21.3 3 Sudeste 8 Sudeste 0 -- -- 75
2020-11-08 10:00:00 19.6 3 Sudeste 6 Sudeste 0 -- -- 87
2020-11-08 09:00:00 14.7 0 Calma 4 Noroeste 0 -- -- 97
2020-11-08 08:00:00 11.9 0 Calma 5 Norte 0 -- -- 99
2020-11-08 07:00:00 11.4 2 Noroeste 8 Noroeste 0 -- -- 99
2020-11-08 06:00:00 11.4 0 Calma 3 Oeste 0 -- -- 99
2020-11-08 05:00:00 12.1 0 Calma 4 Norte 0 -- -- 98
2020-11-08 04:00:00 13.1 2 Norte 5 Norte 0 -- -- 98
2020-11-08 03:00:00 13.1 0 Calma 3 Sur 0 -- -- 98
2020-11-08 02:00:00 13.2 2 Norte 4 Norte 0 -- -- 97
2020-11-08 01:00:00 13.6 0 Calma 4 Norte 0 -- -- 96
2020-11-08 00:00:00 14.9 0 Calma 5 Sudoeste 0 -- -- 96
2020-11-07 23:00:00 15.7 0 Calma 9 Sudoeste 0 -- -- 96
2020-11-07 22:00:00 15 0 Calma 3 Noroeste 0 -- -- 93
2020-11-07 21:00:00 16.3 0 Calma 6 Sur 0 -- -- 90
2020-11-07 20:00:00 17.1 0 Calma 5 Sudoeste 0 -- -- 89
2020-11-07 19:00:00 18 4 Oeste 12 Sudoeste 0 -- -- 84
2020-11-07 18:00:00 19.5 5 Sudoeste 11 Sudoeste 0 -- -- 78
2020-11-07 17:00:00 21 4 Sudoeste 13 Sur 0 -- -- 71
2020-11-07 16:00:00 22 7 Sur 15 Sudeste 0 -- -- 64
2020-11-07 15:00:00 22.3 8 Sur 17 Sudeste 0 -- -- 64
2020-11-07 14:00:00 21.9 3 Sur 16 Sur 0 -- -- 67
2020-11-07 13:00:00 18.3 12 Sur 34 Sur 1.3 -- -- 80
2020-11-07 12:00:00 18.1 8 Sudoeste 24 Oeste 0.6 -- -- 91
2020-11-07 11:00:00 18.1 7 Sur 24 Sudoeste 1.2 -- -- 88
2020-11-07 10:00:00 19.5 12 Sudoeste 34 Sudoeste 0 -- -- 74
2020-11-07 09:00:00 20 6 Sur 13 Sur 0 -- -- 92
2020-11-07 08:00:00 18.8 3 Este 8 Este 0 -- -- 96
2020-11-07 07:00:00 19.7 0 Calma 16 Sudeste 0 -- -- 94
2020-11-07 06:00:00 19.4 9 Sudeste 18 Sudeste 0 -- -- 93
2020-11-07 05:00:00 19.6 8 Sudeste 20 Sudeste 0 -- -- 94
2020-11-07 04:00:00 19 2 Sudeste 12 Este 0 -- -- 92
2020-11-07 03:00:00 18.6 4 Sudeste 13 Sur 0 -- -- 94
2020-11-07 02:00:00 18.7 6 Sudeste 16 Este 0 -- -- 95
2020-11-07 01:00:00 18.6 8 Sudeste 15 Sudeste 0 -- -- 95
2020-11-07 00:00:00 18.7 8 Este 18 Este 0 -- -- 95
2020-11-06 23:00:00 18.9 8 Sudeste 26 Sudeste 0 -- -- 94
2020-11-06 22:00:00 19.2 12 Sudeste 24 Este 0 -- -- 94
2020-11-06 21:00:00 19.2 10 Este 21 Este 0 -- -- 94
2020-11-06 20:00:00 19.3 10 Este 22 Este 0 -- -- 93
2020-11-06 19:00:00 19.5 10 Sudeste 21 Sudeste 0 -- -- 92
2020-11-06 18:00:00 19.7 9 Sudeste 23 Sudeste 0 -- -- 90
2020-11-06 17:00:00 20.4 12 Sudeste 29 Sudeste 0 -- -- 85
2020-11-06 16:00:00 21 15 Este 28 Este 0 -- -- 83
2020-11-06 15:00:00 22.1 16 Sudeste 30 Este 0 -- -- 77
2020-11-06 14:00:00 21.9 15 Sudeste 27 Este 0 -- -- 78
2020-11-06 13:00:00 21.6 17 Sudeste 29 Este 0 -- -- 80
2020-11-06 12:00:00 20.9 16 Sudeste 30 Este 0 -- -- 83
2020-11-06 11:00:00 20.7 13 Sudeste 25 Este 0 -- -- 83
2020-11-06 10:00:00 20.2 12 Este 21 Este 0 -- -- 88
2020-11-06 09:00:00 19.6 7 Este 16 Este 0 -- -- 91
2020-11-06 08:00:00 18.8 5 Este 14 Este 0 -- -- 94
2020-11-06 07:00:00 18.6 3 Este 12 Este 0 -- -- 95
2020-11-06 06:00:00 18.6 3 Este 9 Norte 0 -- -- 94
2020-11-06 05:00:00 18.7 0 Calma 11 Nordeste 0 -- -- 94
2020-11-06 04:00:00 18.8 2 Nordeste 15 Nordeste 0 -- -- 93
2020-11-06 03:00:00 18.8 5 Este 19 Sudeste 0 -- -- 93
2020-11-06 02:00:00 18.9 9 Este 19 Este 0 -- -- 91
2020-11-06 01:00:00 18.9 7 Este 21 Este 0 -- -- 90
2020-11-06 00:00:00 19.1 6 Este 21 Sudeste 0 -- -- 90
2020-11-05 23:00:00 19 8 Este 21 Sudeste 0 -- -- 91
2020-11-05 22:00:00 19 8 Este 25 Este 0 -- -- 92
2020-11-05 21:00:00 18.9 11 Este 24 Este 0 -- -- 90
2020-11-05 20:00:00 18.8 13 Este 26 Sudeste 0 -- -- 89
2020-11-05 19:00:00 18.8 11 Este 23 Este 0 -- -- 89
2020-11-05 18:00:00 19 11 Este 23 Este 0 -- -- 88
2020-11-05 17:00:00 19.4 14 Sudeste 26 Este 0 -- -- 83
2020-11-05 16:00:00 19.9 15 Este 28 Este 0 -- -- 82
2020-11-05 15:00:00 19.9 12 Este 28 Este 0 -- -- 80
2020-11-05 14:00:00 19.8 13 Este 30 Este 0 -- -- 78
2020-11-05 13:00:00 19.9 13 Este 28 Este 0 -- -- 74
2020-11-05 12:00:00 20.2 16 Este 30 Este 0 -- -- 69
2020-11-05 11:00:00 20.9 15 Este 29 Este 0 -- -- 68
2020-11-05 10:00:00 19.8 14 Este 31 Este 0 -- -- 71
2020-11-05 09:00:00 18.2 2 Nordeste 18 Nordeste 0 -- -- 86
2020-11-05 08:00:00 17.2 0 Calma 12 Nordeste 0 -- -- 89
2020-11-05 07:00:00 16.9 3 Nordeste 13 Nordeste 0 -- -- 88
2020-11-05 06:00:00 17 2 Nordeste 14 Norte 0 -- -- 87
2020-11-05 05:00:00 16.8 2 Nordeste 14 Nordeste 0 -- -- 87
2020-11-05 04:00:00 16.7 2 Nordeste 18 Este 0 -- -- 86
2020-11-05 03:00:00 16 4 Norte 13 Nordeste 0 -- -- 86
2020-11-05 02:00:00 15.7 2 Nordeste 13 Este 0 -- -- 84
2020-11-05 01:00:00 16.2 4 Nordeste 14 Norte 0 -- -- 80
2020-11-05 00:00:00 16.2 3 Nordeste 16 Norte 0 -- -- 79
2020-11-04 23:00:00 16.2 4 Nordeste 18 Nordeste 0 -- -- 78
2020-11-04 22:00:00 16.4 3 Nordeste 15 Nordeste 0 -- -- 77
2020-11-04 21:00:00 16.4 3 Nordeste 17 Nordeste 0 -- -- 77
2020-11-04 20:00:00 16.5 3 Nordeste 21 Este 0 -- -- 76
2020-11-04 19:00:00 16.4 3 Nordeste 22 Este 0 -- -- 76
2020-11-04 18:00:00 16.9 5 Nordeste 23 Este 0 -- -- 74
2020-11-04 17:00:00 17.5 10 Este 31 Este 0 -- -- 73
2020-11-04 16:00:00 18.2 13 Este 31 Este 0 -- -- 73
2020-11-04 15:00:00 18 11 Este 29 Este 0 -- -- 78
2020-11-04 14:00:00 18.6 12 Este 28 Sudeste 0 -- -- 72
2020-11-04 13:00:00 19.1 10 Este 30 Sudeste 0 -- -- 70
2020-11-04 12:00:00 18.3 9 Este 25 Sudeste 0 -- -- 73
2020-11-04 11:00:00 18.7 10 Este 30 Este 0 -- -- 71
2020-11-04 10:00:00 17.9 7 Este 20 Sudeste 0 -- -- 76
2020-11-04 09:00:00 16.5 4 Nordeste 16 Nordeste 0 -- -- 84
2020-11-04 08:00:00 15.2 2 Nordeste 9 Este 0 -- -- 91
2020-11-04 07:00:00 14.7 2 Nordeste 9 Norte 0 -- -- 93
2020-11-04 06:00:00 14.8 2 Norte 8 Norte 0 -- -- 90
2020-11-04 05:00:00 15.7 2 Nordeste 10 Nordeste 0 -- -- 86
2020-11-04 04:00:00 15.5 3 Nordeste 12 Norte 0 -- -- 86
2020-11-04 03:00:00 15.6 2 Nordeste 12 Norte 0 -- -- 85
2020-11-04 02:00:00 15.6 3 Nordeste 9 Norte 0 -- -- 88
2020-11-04 01:00:00 14.9 4 Norte 8 Norte 0 -- -- 91
2020-11-04 00:00:00 15.7 2 Nordeste 10 Norte 0 -- -- 89
2020-11-03 23:00:00 16.2 0 Calma 10 Norte 0 -- -- 89
2020-11-03 22:00:00 16.4 5 Norte 10 Nordeste 0 -- -- 88
2020-11-03 21:00:00 17.4 6 Nordeste 16 Norte 0 -- -- 82
2020-11-03 20:00:00 16.9 5 Norte 8 Este 0 -- -- 80
2020-11-03 19:00:00 17.8 0 Calma 12 Este 0 -- -- 76
2020-11-03 18:00:00 18.8 2 Nordeste 12 Nordeste 0 -- -- 72
2020-11-03 17:00:00 19.5 3 Nordeste 15 Nordeste 0 -- -- 68
2020-11-03 16:00:00 20.2 3 Nordeste 13 Nordeste 0 -- -- 69
2020-11-03 15:00:00 21.4 4 Nordeste 15 Norte 0 -- -- 66
2020-11-03 14:00:00 23.6 4 Este 17 Norte 0 -- -- 58
2020-11-03 13:00:00 22.3 4 Sudeste 15 Este 0 -- -- 61
2020-11-03 12:00:00 22.2 5 Este 13 Este 0 -- -- 62
2020-11-03 11:00:00 21.2 2 Este 12 Este 0 -- -- 66
2020-11-03 10:00:00 20.5 0 Calma 7 Noroeste 0 -- -- 69
2020-11-03 09:00:00 17.7 2 Norte 5 Norte 0 -- -- 81
2020-11-03 08:00:00 14.1 0 Calma 5 Noroeste 0 -- -- 94
2020-11-03 07:00:00 13.9 0 Calma 5 Norte 0 -- -- 94
2020-11-03 06:00:00 14.9 0 Calma 5 Norte 0 -- -- 95
2020-11-03 05:00:00 14.8 0 Calma 6 Noroeste 0 -- -- 95
2020-11-03 04:00:00 14.3 0 Calma 5 Norte 0 -- -- 96
2020-11-03 03:00:00 13.6 4 Norte 6 Norte 0 -- -- 97
2020-11-03 02:00:00 13.5 4 Norte 8 Noroeste 0 -- -- 96
2020-11-03 01:00:00 14.4 4 Noroeste 7 Norte 0 -- -- 96
2020-11-03 00:00:00 14.5 0 Calma 5 Norte 0 -- -- 93
2020-11-02 23:00:00 13.5 0 Calma 2 Noroeste 0 -- -- 91
2020-11-02 22:00:00 13.3 0 Calma 3 Oeste 0 -- -- 89
2020-11-02 21:00:00 13.5 0 Calma 4 Norte 0 -- -- 87
2020-11-02 20:00:00 14.9 0 Calma 3 Norte 0 -- -- 85
2020-11-02 19:00:00 16.9 0 Calma 8 Sudoeste 0 -- -- 83
2020-11-02 18:00:00 18.2 3 Sur 14 Sudoeste 0 -- -- 82
2020-11-02 17:00:00 19.8 6 Sudoeste 16 Sur 0 -- -- 74
2020-11-02 16:00:00 20.9 8 Sur 18 Sur 0 -- -- 67
2020-11-02 15:00:00 21.7 8 Sur 19 Sur 0 -- -- 61
2020-11-02 14:00:00 22.3 7 Sur 19 Sudoeste 0 -- -- 58
2020-11-02 13:00:00 22.1 9 Sur 19 Sudoeste 0 -- -- 63
2020-11-02 12:00:00 22.1 8 Sur 18 Sur 0 -- -- 64
2020-11-02 11:00:00 20.8 8 Sur 16 Sudoeste 0 -- -- 71
2020-11-02 10:00:00 19.6 7 Sur 16 Sur 0 -- -- 77
2020-11-02 09:00:00 18.2 4 Sudoeste 12 Sudoeste 0 -- -- 84
2020-11-02 08:00:00 11.6 0 Calma 2 Norte 0 -- -- 96
2020-11-02 07:00:00 10.3 0 Calma 3 Norte 0 -- -- 96
2020-11-02 06:00:00 10.3 0 Calma -- -- 0 -- -- 94
2020-11-02 05:00:00 10.9 0 Calma 3 Norte 0 -- -- 95
2020-11-02 04:00:00 10.9 0 Calma 4 Norte 0 -- -- 95
2020-11-02 03:00:00 11.3 0 Calma 4 Norte 0 -- -- 95
2020-11-02 02:00:00 11.6 0 Calma 3 Noroeste 0 -- -- 93
2020-11-02 01:00:00 12.2 0 Calma 4 Norte 0 -- -- 92
2020-11-02 00:00:00 12.5 0 Calma 4 Norte 0 -- -- 92
2020-11-01 23:00:00 13.4 0 Calma 4 Norte 0 -- -- 92
2020-11-01 22:00:00 13.8 0 Calma 4 Norte 0 -- -- 89
2020-11-01 21:00:00 15.5 0 Calma 4 Sudoeste 0 -- -- 88
2020-11-01 20:00:00 16.8 3 Sudoeste 10 Sudoeste 0 -- -- 87
2020-11-01 19:00:00 17.5 0 Calma 11 Sudoeste 0 -- -- 82
2020-11-01 18:00:00 18.8 5 Sudoeste 15 Sudoeste 0 -- -- 79
2020-11-01 17:00:00 20.7 8 Sudoeste 20 Sur 0 -- -- 70
2020-11-01 16:00:00 22.4 9 Sudoeste 19 Sudoeste 0 -- -- 63
2020-11-01 15:00:00 22.3 9 Sudoeste 24 Sur 0 -- -- 59
2020-11-01 14:00:00 22.9 12 Sudoeste 23 Sur 0 -- -- 57
2020-11-01 13:00:00 23.2 6 Sur 16 Sudoeste 0 -- -- 56
2020-11-01 12:00:00 22.5 5 Sudoeste 16 Sudoeste 0 -- -- 59
2020-11-01 11:00:00 22.1 7 Sudoeste 14 Sudoeste 0 -- -- 66
2020-11-01 10:00:00 20 3 Sudoeste 10 Sudoeste 0 -- -- 75
2020-11-01 09:00:00 16 0 Calma 2 Sudeste 0 -- -- 87
2020-11-01 08:00:00 10.2 0 Calma 4 Noroeste 0 -- -- 95
2020-11-01 07:00:00 9.3 0 Calma 3 Noroeste 0 -- -- 97
2020-11-01 06:00:00 10 0 Calma 7 Norte 0 -- -- 96
2020-11-01 05:00:00 10.2 0 Calma 6 Norte 0 -- -- 96
2020-11-01 04:00:00 10.3 0 Calma 6 Norte 0 -- -- 97
2020-11-01 03:00:00 10.4 0 Calma 4 Norte 0 -- -- 94
2020-11-01 02:00:00 11.1 0 Calma 8 Noroeste 0 -- -- 94
2020-11-01 01:00:00 12.1 0 Calma 10 Noroeste 0 -- -- 94
2020-11-01 00:00:00 11.9 0 Calma 6 Norte 0 -- -- 94
2020-10-31 23:00:00 12 0 Calma 4 Norte 0 -- -- 91
2020-10-31 22:00:00 12.6 0 Calma 4 Norte 0 -- -- 89
2020-10-31 21:00:00 13.5 0 Calma 3 Norte 0 -- -- 86
2020-10-31 20:00:00 15.4 0 Calma 6 Oeste 0 -- -- 84
2020-10-31 19:00:00 17.4 3 Sudoeste 9 Sudoeste 0 -- -- 81
2020-10-31 18:00:00 18.7 6 Sudoeste 14 Sudoeste 0 -- -- 73
2020-10-31 17:00:00 10.4 9 Sudoeste 15 Sudoeste 0 -- -- 65
2020-10-31 16:00:00 21 8 Sur 17 Sur 0 -- -- 67
2020-10-31 15:00:00 23 9 Sur 18 Sudoeste 0 -- -- 55
2020-10-31 14:00:00 23.3 8 Sur 17 Sur 0 -- -- 45
2020-10-31 13:00:00 23 6 Sur 15 Sudeste 0 -- -- 46
2020-10-31 12:00:00 23.6 6 Sur 14 Sudeste 0 -- -- 50
2020-10-31 11:00:00 22.4 5 Sudoeste 13 Oeste 0 -- -- 56
2020-10-31 10:00:00 19.9 6 Sudoeste 13 Sudoeste 0 -- -- 68
2020-10-31 09:00:00 17.2 0 Calma 0 Calma 0 -- -- 92
2020-10-31 08:00:00 10.6 0 Calma -- -- 0 -- -- 99
2020-10-31 07:00:00 9.9 0 Calma 0 Calma 0 -- -- 98
2020-10-31 06:00:00 10.2 0 Calma -- -- 0 -- -- 98
2020-10-31 05:00:00 10.3 0 Calma 2 Oeste 0 -- -- 99
2020-10-31 04:00:00 10.4 0 Calma -- -- 0 -- -- 98
2020-10-31 03:00:00 11 0 Calma 2 Oeste 0 -- -- 96
2020-10-31 02:00:00 11.2 0 Calma 3 Oeste 0 -- -- 93
2020-10-31 01:00:00 11.9 0 Calma 4 Norte 0 -- -- 94
2020-10-31 00:00:00 13.2 0 Calma 5 Norte 0 -- -- 92
2020-10-30 23:00:00 13.6 0 Calma 5 Norte 0 -- -- 92
2020-10-30 22:00:00 14.2 0 Calma 3 Norte 0 -- -- 90
2020-10-30 21:00:00 15.1 0 Calma 3 Noroeste 0 -- -- 85
2020-10-30 20:00:00 16.3 0 Calma 5 Sudoeste 0 -- -- 78
2020-10-30 19:00:00 18.4 0 Calma 8 Sudoeste 0 -- -- 76
2020-10-30 18:00:00 19.6 2 Sur 11 Oeste 0 -- -- 67
2020-10-30 17:00:00 22.3 8 Oeste 17 Sudoeste 0 -- -- 55
2020-10-30 16:00:00 23.3 12 Oeste 19 Oeste 0 -- -- 51
2020-10-30 15:00:00 24.2 11 Sudoeste 21 Oeste 0 -- -- 47
2020-10-30 14:00:00 24.9 8 Oeste 22 Oeste 0 -- -- 47
2020-10-30 13:00:00 24.2 9 Oeste 18 Oeste 0 -- -- 45
2020-10-30 12:00:00 23.8 8 Sudoeste 16 Oeste 0 -- -- 55
2020-10-30 11:00:00 21.8 8 Oeste 15 Oeste 0 -- -- 64
2020-10-30 10:00:00 20.3 8 Oeste 15 Sudoeste 0 -- -- 74
2020-10-30 09:00:00 17.9 0 Calma 2 Norte 0 -- -- 84
2020-10-30 08:00:00 11.9 0 Calma 4 Oeste 0 -- -- 96
2020-10-30 07:00:00 10.4 0 Calma 5 Norte 0 -- -- 96
2020-10-30 06:00:00 10.3 0 Calma 4 Oeste 0 -- -- 97
2020-10-30 05:00:00 10.8 0 Calma 7 Oeste 0 -- -- 96
2020-10-30 04:00:00 11.3 0 Calma 6 Norte 0 -- -- 96
2020-10-30 03:00:00 12.2 0 Calma 5 Noroeste 0 -- -- 95
2020-10-30 02:00:00 12.1 0 Calma 6 Norte 0 -- -- 96
2020-10-30 01:00:00 12.8 4 Norte 6 Norte 0 -- -- 96
2020-10-30 00:00:00 12.7 0 Calma 5 Noroeste 0 -- -- 92
2020-10-29 23:00:00 13.5 3 Oeste 5 Noroeste 0 -- -- 95
2020-10-29 22:00:00 13.5 0 Calma 5 Norte 0 -- -- 89
2020-10-29 21:00:00 14.3 0 Calma 3 Norte 0 -- -- 85
2020-10-29 20:00:00 15.6 0 Calma 2 Oeste 0 -- -- 85
2020-10-29 19:00:00 17.3 0 Calma 3 Sur 0 -- -- 81
2020-10-29 18:00:00 19.1 2 Sur 13 Sudoeste 0 -- -- 77
2020-10-29 17:00:00 20.9 7 Sudoeste 17 Sur 0 -- -- 67
2020-10-29 16:00:00 21.3 8 Sur 17 Sur 0 -- -- 64
2020-10-29 15:00:00 22.1 7 Sur 14 Sudoeste 0 -- -- 61
2020-10-29 14:00:00 22.2 3 Sur 10 Sudeste 0 -- -- 54
2020-10-29 13:00:00 23 4 Sudeste 13 Este 0 -- -- 49
2020-10-29 12:00:00 23 3 Sudeste 13 Sudeste 0 -- -- 55
2020-10-29 11:00:00 21.2 4 Sudeste 12 Este 0 -- -- 63
2020-10-29 10:00:00 20.1 4 Este 12 Sudeste 0 -- -- 68
2020-10-29 09:00:00 17.5 4 Norte 5 Norte 0 -- -- 85
2020-10-29 08:00:00 12.2 0 Calma 5 Norte 0 -- -- 93
2020-10-29 07:00:00 10.7 0 Calma 5 Norte 0 -- -- 95
2020-10-29 06:00:00 10.9 0 Calma 5 Noroeste 0 -- -- 94
2020-10-29 05:00:00 11.1 0 Calma 5 Norte 0 -- -- 93
2020-10-29 04:00:00 11.4 0 Calma 5 Noroeste 0 -- -- 94
2020-10-29 03:00:00 11.1 0 Calma 5 Noroeste 0 -- -- 93
2020-10-29 02:00:00 11.6 0 Calma 5 Este 0 -- -- 93
2020-10-29 01:00:00 12.3 3 Norte 6 Norte 0 -- -- 91
2020-10-29 00:00:00 13 0 Calma 4 Norte 0 -- -- 88
2020-10-28 23:00:00 14.5 0 Calma 4 Nordeste 0 -- -- 87
2020-10-28 22:00:00 15.6 0 Calma 7 Sudoeste 0 -- -- 82
2020-10-28 21:00:00 16.1 2 Sudoeste 7 Sudoeste 0 -- -- 81
2020-10-28 20:00:00 16.9 0 Calma 6 Norte 0 -- -- 74
2020-10-28 19:00:00 17.5 2 Sudeste 17 Oeste 0 -- -- 72
2020-10-28 18:00:00 18.8 8 Oeste 20 Oeste 0 -- -- 63
2020-10-28 17:00:00 20.2 10 Oeste 24 Oeste 0 -- -- 56
2020-10-28 16:00:00 21.8 12 Oeste 24 Oeste 0 -- -- 48
2020-10-28 15:00:00 23.1 10 Oeste 23 Sudoeste 0 -- -- 40
2020-10-28 14:00:00 23.4 8 Sudoeste 22 Oeste 0 -- -- 40
2020-10-28 13:00:00 22.9 11 Oeste 20 Oeste 0 -- -- 37
2020-10-28 12:00:00 21.8 8 Sudoeste 17 Oeste 0 -- -- 49
2020-10-28 11:00:00 21.8 7 Oeste 15 Oeste 0 -- -- 46
2020-10-28 10:00:00 20 5 Sudeste 9 Sudeste 0 -- -- 59
2020-10-28 09:00:00 14.1 0 Calma 3 Noroeste 0 -- -- 83
2020-10-28 08:00:00 10.7 0 Calma 4 Oeste 0 -- -- 90
2020-10-28 07:00:00 9 0 Calma 3 Oeste 0 -- -- 89
2020-10-28 06:00:00 8.8 0 Calma 3 Norte 0 -- -- 87
2020-10-28 05:00:00 8.8 0 Calma 5 Oeste 0 -- -- 85
2020-10-28 04:00:00 8.8 0 Calma 6 Oeste 0 -- -- 86
2020-10-28 03:00:00 9.8 0 Calma 4 Oeste 0 -- -- 81
2020-10-28 02:00:00 9.3 0 Calma 4 Norte 0 -- -- 80
2020-10-28 01:00:00 9.1 0 Calma 4 Norte 0 -- -- 79
2020-10-28 00:00:00 9.7 0 Calma 3 Noroeste 0 -- -- 77
2020-10-27 23:00:00 11.4 0 Calma 4 Norte 0 -- -- 74
2020-10-27 22:00:00 12.9 0 Calma 10 Oeste 0 -- -- 68
2020-10-27 21:00:00 14.2 5 Oeste 8 Oeste 0 -- -- 64
2020-10-27 20:00:00 14.5 3 Oeste 15 Oeste 0 -- -- 64
2020-10-27 19:00:00 15.4 6 Oeste 12 Sudoeste 0 -- -- 61
2020-10-27 18:00:00 16.6 8 Oeste 24 Oeste 0 -- -- 56
2020-10-27 17:00:00 18.2 14 Oeste 24 Oeste 0 -- -- 49
2020-10-27 16:00:00 19.7 10 Oeste 23 Oeste 0 -- -- 42
2020-10-27 15:00:00 19.1 11 Oeste 20 Sudoeste 0 -- -- 40
2020-10-27 14:00:00 20.5 4 Noroeste 21 Norte 0 -- -- 35
2020-10-27 13:00:00 19.8 8 Noroeste 22 Noroeste 0 -- -- 34
2020-10-27 12:00:00 19 10 Noroeste 22 Noroeste 0 -- -- 39
2020-10-27 11:00:00 18.5 10 Noroeste 21 Oeste 0 -- -- 44
2020-10-27 10:00:00 18.1 11 Oeste 21 Oeste 0 -- -- 46
2020-10-27 09:00:00 17 8 Oeste 19 Noroeste 0 -- -- 49
2020-10-27 08:00:00 11.4 0 Calma 5 Noroeste 0 -- -- 70
2020-10-27 07:00:00 11.5 0 Calma 8 Sudeste 0 -- -- 67
2020-10-27 06:00:00 13.6 4 Noroeste 16 Noroeste 0 -- -- 59
2020-10-27 05:00:00 13.6 7 Oeste 17 Oeste 0 -- -- 55
2020-10-27 04:00:00 15 8 Noroeste 23 Oeste 0 -- -- 50
2020-10-27 03:00:00 15.1 9 Noroeste 22 Noroeste 0 -- -- 50
2020-10-27 02:00:00 15.4 11 Noroeste 26 Noroeste 0 -- -- 48
2020-10-27 01:00:00 15.1 5 Oeste 19 Oeste 0 -- -- 52
2020-10-27 00:00:00 15.2 9 Oeste 20 Oeste 0 -- -- 50